Time;durP1;ratioP1;P1;durP2;ratioP2;P2;SDS_P1;SDS_P2;PMS_P1;PMS_P2;Temp;Humidity;BMP_temperature;BMP_pressure;BME280_temperature;BME280_humidity;BME280_pressure;Samples;Min_cycle;Max_cycle;Signal;HPM_P1;HPM_P2
2023/05/08 00:02:23;;;;;;;8.30;6.00;;;;;;;;;;5051529;28;20029;-74
2023/05/08 00:04:48;;;;;;;9.18;6.38;;;;;;;;;;5048022;28;20028;-74
2023/05/08 00:07:14;;;;;;;9.10;6.63;;;;;;;;;;5050863;28;20028;-73
2023/05/08 00:09:39;;;;;;;9.27;6.82;;;;;;;;;;5053482;28;20029;-74
2023/05/08 00:12:04;;;;;;;10.90;7.05;;;;;;;;;;5050101;28;20477;-74
2023/05/08 00:14:30;;;;;;;10.05;7.20;;;;;;;;;;5048325;28;20029;-75
2023/05/08 00:16:55;;;;;;;8.52;7.13;;;;;;;;;;5051600;28;20385;-73
2023/05/08 00:19:20;;;;;;;10.38;7.00;;;;;;;;;;5052891;28;20401;-73
2023/05/08 00:21:46;;;;;;;8.70;6.78;;;;;;;;;;5052876;28;20530;-74
2023/05/08 00:24:11;;;;;;;9.38;6.78;;;;;;;;;;5052640;28;20056;-73
2023/05/08 00:26:36;;;;;;;8.85;6.65;;;;;;;;;;5052711;28;20034;-73
2023/05/08 00:29:02;;;;;;;9.63;7.20;;;;;;;;;;5049917;28;20036;-75
2023/05/08 00:31:27;;;;;;;9.23;6.82;;;;;;;;;;5046353;28;20040;-73
2023/05/08 00:33:52;;;;;;;7.90;6.20;;;;;;;;;;5052618;28;20037;-74
2023/05/08 00:36:18;;;;;;;8.77;7.22;;;;;;;;;;5052168;28;20033;-73
2023/05/08 00:38:43;;;;;;;9.75;8.07;;;;;;;;;;5049788;28;20370;-74
2023/05/08 00:41:08;;;;;;;9.25;7.40;;;;;;;;;;5051868;28;20025;-73
2023/05/08 00:43:34;;;;;;;8.43;7.13;;;;;;;;;;5044873;28;20041;-73
2023/05/08 00:46:00;;;;;;;7.90;6.57;;;;;;;;;;5047820;28;20377;-74
2023/05/08 00:48:32;;;;;;;9.27;7.38;;;;;;;;;;5048775;28;20025;-73
2023/05/08 00:50:58;;;;;;;8.50;7.17;;;;;;;;;;5048436;28;20078;-73
2023/05/08 00:53:25;;;;;;;10.02;7.82;;;;;;;;;;5052242;28;20041;-73
2023/05/08 00:55:51;;;;;;;9.85;8.68;;;;;;;;;;5051792;28;20028;-75
2023/05/08 00:58:17;;;;;;;12.07;9.60;;;;;;;;;;5045393;28;20484;-73
2023/05/08 01:00:45;;;;;;;12.27;8.80;;;;;;;;;;5045157;28;20021;-75
2023/05/08 01:03:11;;;;;;;10.57;8.77;;;;;;;;;;5049192;28;20035;-73
2023/05/08 01:05:37;;;;;;;10.35;8.15;;;;;;;;;;5042101;28;20032;-73
2023/05/08 01:08:02;;;;;;;11.05;7.65;;;;;;;;;;5051101;28;20044;-74
2023/05/08 01:10:36;;;;;;;8.77;7.45;;;;;;;;;;5046872;28;22003;-74
2023/05/08 01:13:10;;;;;;;9.63;7.90;;;;;;;;;;5049145;28;20029;-74
2023/05/08 01:15:46;;;;;;;10.57;7.32;;;;;;;;;;5046677;28;20040;-74
2023/05/08 01:18:31;;;;;;;10.20;7.85;;;;;;;;;;5046387;28;20500;-74
2023/05/08 01:21:33;;;;;;;9.30;7.78;;;;;;;;;;5047417;28;20481;-74
2023/05/08 01:24:39;;;;;;;9.82;8.10;;;;;;;;;;5042543;28;20041;-75
2023/05/08 01:27:16;;;;;;;9.38;7.38;;;;;;;;;;5049816;28;20027;-74
2023/05/08 01:29:58;;;;;;;13.05;7.50;;;;;;;;;;5049833;28;20034;-74
2023/05/08 01:32:27;;;;;;;7.80;6.47;;;;;;;;;;5059969;28;20033;-74
2023/05/08 01:35:16;;;;;;;8.07;6.70;;;;;;;;;;5045955;28;20032;-74
2023/05/08 01:37:53;;;;;;;9.07;6.28;;;;;;;;;;5047541;28;20037;-74
2023/05/08 01:40:30;;;;;;;8.57;7.25;;;;;;;;;;5047887;28;20452;-73
2023/05/08 01:43:13;;;;;;;7.68;6.45;;;;;;;;;;5045353;28;20059;-74
2023/05/08 01:45:43;;;;;;;8.30;6.40;;;;;;;;;;5042817;28;20067;-74
2023/05/08 01:48:31;;;;;;;8.35;6.70;;;;;;;;;;5041728;28;20457;-74
2023/05/08 01:51:04;;;;;;;7.10;6.38;;;;;;;;;;5049056;28;20025;-73
2023/05/08 01:53:37;;;;;;;7.97;6.90;;;;;;;;;;5045461;28;20029;-74
2023/05/08 01:56:06;;;;;;;;;;;;;;;;;;5049777;28;20448;-74
2023/05/08 01:58:34;;;;;;;7.25;5.53;;;;;;;;;;5045589;28;19920;-74
2023/05/08 02:01:01;;;;;;;8.38;6.50;;;;;;;;;;5038319;28;20021;-74
2023/05/08 02:03:30;;;;;;;9.95;6.35;;;;;;;;;;5046948;28;20032;-74
2023/05/08 02:05:57;;;;;;;8.05;6.53;;;;;;;;;;5044968;28;20029;-74
2023/05/08 02:08:23;;;;;;;6.63;5.63;;;;;;;;;;5048709;28;20107;-74
2023/05/08 02:10:50;;;;;;;7.43;6.22;;;;;;;;;;5050865;28;20457;-73
2023/05/08 02:13:18;;;;;;;8.45;7.00;;;;;;;;;;5043045;28;20469;-74
2023/05/08 02:15:47;;;;;;;7.90;6.43;;;;;;;;;;5042235;28;20481;-74
2023/05/08 02:18:14;;;;;;;6.97;6.28;;;;;;;;;;5047700;28;20032;-74
2023/05/08 02:20:41;;;;;;;9.38;6.63;;;;;;;;;;5035715;28;20031;-74
2023/05/08 02:23:07;;;;;;;9.40;6.90;;;;;;;;;;5050990;28;20029;-74
2023/05/08 02:25:34;;;;;;;8.55;6.55;;;;;;;;;;5046868;28;20021;-74
2023/05/08 02:28:00;;;;;;;10.27;6.65;;;;;;;;;;5044728;28;20033;-74
2023/05/08 02:30:27;;;;;;;10.20;6.28;;;;;;;;;;5049679;28;20027;-74
2023/05/08 02:32:55;;;;;;;9.90;6.70;;;;;;;;;;5049108;28;20017;-74
2023/05/08 02:35:22;;;;;;;7.45;6.32;;;;;;;;;;5048408;28;20166;-73
2023/05/08 02:37:52;;;;;;;8.05;6.82;;;;;;;;;;5043179;28;20477;-74
2023/05/08 02:40:19;;;;;;;8.27;6.43;;;;;;;;;;5047961;28;20496;-74
2023/05/08 02:42:45;;;;;;;8.52;6.35;;;;;;;;;;5045169;28;20500;-74
2023/05/08 02:45:11;;;;;;;9.00;6.25;;;;;;;;;;5042945;28;20101;-74
2023/05/08 02:47:51;;;;;;;6.20;5.60;;;;;;;;;;5044808;28;20112;-74
2023/05/08 02:50:20;;;;;;;6.10;5.22;;;;;;;;;;5046716;28;20036;-74
2023/05/08 02:52:59;;;;;;;8.52;6.28;;;;;;;;;;5046002;28;20075;-74
2023/05/08 02:56:03;;;;;;;9.82;6.32;;;;;;;;;;5044030;28;21358;-74
2023/05/08 02:58:36;;;;;;;7.30;6.13;;;;;;;;;;5033152;28;20091;-73
2023/05/08 03:01:10;;;;;;;9.32;6.70;;;;;;;;;;5037004;28;20482;-74
2023/05/08 03:03:42;;;;;;;6.80;5.72;;;;;;;;;;5044787;28;20032;-74
2023/05/08 03:06:12;;;;;;;6.68;5.90;;;;;;;;;;5038568;28;20029;-74
2023/05/08 03:08:39;;;;;;;8.52;6.07;;;;;;;;;;5046552;28;20057;-74
2023/05/08 03:11:11;;;;;;;6.15;5.40;;;;;;;;;;5045495;28;20032;-74
2023/05/08 03:13:39;;;;;;;6.38;5.68;;;;;;;;;;5044340;28;20041;-74
2023/05/08 03:16:08;;;;;;;6.15;5.20;;;;;;;;;;5042450;28;20049;-74
2023/05/08 03:18:53;;;;;;;6.47;5.78;;;;;;;;;;5043712;28;20021;-75
2023/05/08 03:21:20;;;;;;;6.07;5.38;;;;;;;;;;5048317;28;20033;-74
2023/05/08 03:23:48;;;;;;;6.72;6.03;;;;;;;;;;5045714;28;20060;-74
2023/05/08 03:26:18;;;;;;;7.78;6.30;;;;;;;;;;5045627;28;20068;-74
2023/05/08 03:28:47;;;;;;;6.88;5.82;;;;;;;;;;5050736;28;20022;-74
2023/05/08 03:31:15;;;;;;;7.47;6.35;;;;;;;;;;5050313;28;20499;-74
2023/05/08 03:33:42;;;;;;;7.88;7.07;;;;;;;;;;5048553;28;20057;-74
2023/05/08 03:36:08;;;;;;;7.78;6.68;;;;;;;;;;5045312;28;20029;-74
2023/05/08 03:38:34;;;;;;;8.75;6.63;;;;;;;;;;5050608;28;20021;-74
2023/05/08 03:41:00;;;;;;;8.15;7.30;;;;;;;;;;5049145;28;20505;-74
2023/05/08 03:43:27;;;;;;;7.40;6.63;;;;;;;;;;5048066;28;20083;-74
2023/05/08 03:45:54;;;;;;;7.47;6.63;;;;;;;;;;5044825;28;20021;-74
2023/05/08 03:48:21;;;;;;;14.23;7.88;;;;;;;;;;5038712;28;20025;-74
2023/05/08 03:50:47;;;;;;;9.55;7.95;;;;;;;;;;5048388;28;20033;-74
2023/05/08 03:53:13;;;;;;;9.15;7.25;;;;;;;;;;5046531;28;20488;-74
2023/05/08 03:55:40;;;;;;;9.43;6.70;;;;;;;;;;5059014;28;20075;-74
2023/05/08 03:58:27;;;;;;;8.13;7.05;;;;;;;;;;5050206;28;20115;-74
2023/05/08 04:00:52;;;;;;;8.05;6.75;;;;;;;;;;5049229;28;20020;-73
2023/05/08 04:03:26;;;;;;;10.80;7.32;;;;;;;;;;5048530;28;20031;-74
2023/05/08 04:06:21;;;;;;;7.63;6.35;;;;;;;;;;5062592;28;20058;-74
2023/05/08 04:09:07;;;;;;;8.20;6.93;;;;;;;;;;5044617;28;20025;-74
2023/05/08 04:11:43;;;;;;;8.23;6.85;;;;;;;;;;5039088;28;20041;-74
2023/05/08 04:14:15;;;;;;;9.10;7.70;;;;;;;;;;5043855;28;20029;-74
2023/05/08 04:16:48;;;;;;;10.20;7.65;;;;;;;;;;5043807;28;20024;-74
2023/05/08 04:19:23;;;;;;;8.30;7.45;;;;;;;;;;5046489;28;20163;-73
2023/05/08 04:21:50;;;;;;;8.85;7.90;;;;;;;;;;5052253;28;20028;-73
2023/05/08 04:24:16;;;;;;;9.02;7.70;;;;;;;;;;5050404;28;20118;-74
2023/05/08 04:26:42;;;;;;;9.73;7.53;;;;;;;;;;5051285;28;20511;-74
2023/05/08 04:29:08;;;;;;;8.63;7.50;;;;;;;;;;5050965;28;20032;-73
2023/05/08 04:31:34;;;;;;;9.80;7.80;;;;;;;;;;5049532;28;20524;-74
2023/05/08 04:34:01;;;;;;;8.55;6.88;;;;;;;;;;5046378;28;20063;-74
2023/05/08 04:36:30;;;;;;;10.55;8.32;;;;;;;;;;5046188;28;20059;-73
2023/05/08 04:38:55;;;;;;;10.15;7.40;;;;;;;;;;5046039;28;20025;-74
2023/05/08 04:41:21;;;;;;;8.88;7.93;;;;;;;;;;5047531;28;20044;-74
2023/05/08 04:43:47;;;;;;;7.70;6.53;;;;;;;;;;5059859;28;20059;-74
2023/05/08 04:46:12;;;;;;;7.60;6.47;;;;;;;;;;5044399;28;20029;-74
2023/05/08 04:48:37;;;;;;;7.80;6.90;;;;;;;;;;5049598;28;20031;-74
2023/05/08 04:51:03;;;;;;;7.22;6.53;;;;;;;;;;5047165;28;20060;-73
2023/05/08 04:53:28;;;;;;;7.80;6.63;;;;;;;;;;5051457;28;20112;-74
2023/05/08 04:55:54;;;;;;;7.93;7.00;;;;;;;;;;5048408;28;20040;-73
2023/05/08 04:58:19;;;;;;;8.02;6.85;;;;;;;;;;5051288;28;20024;-74
2023/05/08 05:00:44;;;;;;;8.25;7.38;;;;;;;;;;5042912;28;20458;-75
2023/05/08 05:03:10;;;;;;;7.75;6.80;;;;;;;;;;5047104;28;20025;-74
2023/05/08 05:05:35;;;;;;;7.50;6.72;;;;;;;;;;5046370;28;20063;-74
2023/05/08 05:08:00;;;;;;;7.43;6.63;;;;;;;;;;5047473;28;20370;-74
2023/05/08 05:10:26;;;;;;;6.80;5.97;;;;;;;;;;5050451;28;20473;-74
2023/05/08 05:12:51;;;;;;;13.80;6.78;;;;;;;;;;5046452;28;20033;-73
2023/05/08 05:15:17;;;;;;;7.65;6.82;;;;;;;;;;5044330;28;20463;-74
2023/05/08 05:17:42;;;;;;;8.40;7.28;;;;;;;;;;5045203;28;20021;-74
2023/05/08 05:20:08;;;;;;;9.20;8.00;;;;;;;;;;5047111;28;20029;-73
2023/05/08 05:22:33;;;;;;;13.05;8.57;;;;;;;;;;5047789;28;20488;-73
2023/05/08 05:24:58;;;;;;;8.52;7.38;;;;;;;;;;5032801;28;20614;-73
2023/05/08 05:27:24;;;;;;;8.57;6.82;;;;;;;;;;5046599;28;20028;-74
2023/05/08 05:29:49;;;;;;;10.07;8.10;;;;;;;;;;5041219;28;20044;-74
2023/05/08 05:32:15;;;;;;;9.68;7.22;;;;;;;;;;5046184;28;20021;-73
2023/05/08 05:34:40;;;;;;;11.38;9.23;;;;;;;;;;5047850;28;20044;-74
2023/05/08 05:37:06;;;;;;;10.82;8.75;;;;;;;;;;5046601;28;20052;-74
2023/05/08 05:39:31;;;;;;;12.48;10.27;;;;;;;;;;5048879;28;20382;-73
2023/05/08 05:41:56;;;;;;;12.70;9.73;;;;;;;;;;5047343;28;20124;-74
2023/05/08 05:44:22;;;;;;;11.85;10.23;;;;;;;;;;5046051;28;20021;-74
2023/05/08 05:46:47;;;;;;;14.50;11.73;;;;;;;;;;5041780;28;20044;-73
2023/05/08 05:49:12;;;;;;;13.57;10.93;;;;;;;;;;5043085;28;20033;-74
2023/05/08 05:51:38;;;;;;;14.90;11.93;;;;;;;;;;5041662;28;20494;-74
2023/05/08 05:54:03;;;;;;;14.32;11.50;;;;;;;;;;5044239;28;20021;-74
2023/05/08 05:56:29;;;;;;;13.45;10.70;;;;;;;;;;5044239;28;20388;-74
2023/05/08 05:58:54;;;;;;;14.05;11.05;;;;;;;;;;5047299;28;20027;-74
2023/05/08 06:01:19;;;;;;;13.40;10.98;;;;;;;;;;5046484;28;20025;-74
2023/05/08 06:03:45;;;;;;;15.15;11.40;;;;;;;;;;5044003;28;20032;-74
2023/05/08 06:06:11;;;;;;;17.98;13.35;;;;;;;;;;5040884;28;20040;-73
2023/05/08 06:08:36;;;;;;;15.45;12.90;;;;;;;;;;5051251;28;20507;-74
2023/05/08 06:11:02;;;;;;;15.77;12.25;;;;;;;;;;5047127;28;20041;-73
2023/05/08 06:13:27;;;;;;;15.40;11.90;;;;;;;;;;5055147;28;20025;-73
2023/05/08 06:15:56;;;;;;;15.02;11.98;;;;;;;;;;5048211;28;20021;-74
2023/05/08 06:18:22;;;;;;;18.50;12.90;;;;;;;;;;5043587;28;20071;-73
2023/05/08 06:20:47;;;;;;;14.45;10.80;;;;;;;;;;5049666;28;20036;-73
2023/05/08 06:23:13;;;;;;;20.35;15.68;;;;;;;;;;5048493;28;20025;-73
2023/05/08 06:25:39;;;;;;;15.10;11.50;;;;;;;;;;5049594;28;20033;-73
2023/05/08 06:28:06;;;;;;;16.73;12.93;;;;;;;;;;5041602;28;20013;-73
2023/05/08 06:30:32;;;;;;;15.45;11.63;;;;;;;;;;5040454;28;20040;-74
2023/05/08 06:32:57;;;;;;;21.52;16.00;;;;;;;;;;5038933;28;20033;-73
2023/05/08 06:35:23;;;;;;;15.85;11.50;;;;;;;;;;5044761;28;20127;-74
2023/05/08 06:37:48;;;;;;;17.52;13.20;;;;;;;;;;5046370;28;20039;-74
2023/05/08 06:40:13;;;;;;;22.85;15.52;;;;;;;;;;5042834;28;20025;-74
2023/05/08 06:42:39;;;;;;;16.58;12.50;;;;;;;;;;5043688;28;20032;-74
2023/05/08 06:45:06;;;;;;;23.52;15.43;;;;;;;;;;5042675;28;20025;-73
2023/05/08 06:47:31;;;;;;;20.45;15.80;;;;;;;;;;5047524;28;20028;-73
2023/05/08 06:49:57;;;;;;;23.33;17.10;;;;;;;;;;5043608;28;20037;-74
2023/05/08 06:52:24;;;;;;;24.05;18.25;;;;;;;;;;5042786;28;20538;-73
2023/05/08 06:54:50;;;;;;;18.65;14.30;;;;;;;;;;5049765;28;20476;-73
2023/05/08 06:57:15;;;;;;;20.65;16.08;;;;;;;;;;5045854;28;20077;-73
2023/05/08 06:59:40;;;;;;;23.42;17.17;;;;;;;;;;5051715;28;20032;-74
2023/05/08 07:02:06;;;;;;;22.77;17.80;;;;;;;;;;5047307;28;20044;-74
2023/05/08 07:04:31;;;;;;;21.40;17.08;;;;;;;;;;5045981;28;20366;-73
2023/05/08 07:06:57;;;;;;;26.15;18.58;;;;;;;;;;5044357;28;20237;-73
2023/05/08 07:09:22;;;;;;;22.20;17.73;;;;;;;;;;5052067;28;20454;-73
2023/05/08 07:11:47;;;;;;;25.73;18.13;;;;;;;;;;5049809;28;20033;-73
2023/05/08 07:14:13;;;;;;;23.63;18.17;;;;;;;;;;5049766;28;20028;-73
2023/05/08 07:16:38;;;;;;;25.50;18.58;;;;;;;;;;5043777;28;20033;-73
2023/05/08 07:19:04;;;;;;;25.65;17.83;;;;;;;;;;5045236;28;20112;-73
2023/05/08 07:21:29;;;;;;;22.30;17.52;;;;;;;;;;5047548;28;20067;-73
2023/05/08 07:23:55;;;;;;;22.75;18.52;;;;;;;;;;5043558;28;20029;-73
2023/05/08 07:26:21;;;;;;;22.55;17.23;;;;;;;;;;5044550;28;20025;-73
2023/05/08 07:28:47;;;;;;;22.27;17.48;;;;;;;;;;5041254;28;20035;-73
2023/05/08 07:31:12;;;;;;;25.63;17.67;;;;;;;;;;5042271;28;20120;-73
2023/05/08 07:33:37;;;;;;;17.63;14.52;;;;;;;;;;5044657;28;20033;-74
2023/05/08 07:36:03;;;;;;;15.73;12.77;;;;;;;;;;5044989;28;20158;-73
2023/05/08 07:38:28;;;;;;;22.40;16.38;;;;;;;;;;5049773;28;20495;-73
2023/05/08 07:40:56;;;;;;;25.27;17.80;;;;;;;;;;5053212;28;20396;-74
2023/05/08 07:43:22;;;;;;;20.10;14.50;;;;;;;;;;5051983;28;20075;-73
2023/05/08 07:45:48;;;;;;;22.25;16.20;;;;;;;;;;5047257;28;20080;-74
2023/05/08 07:48:13;;;;;;;17.77;13.43;;;;;;;;;;5045566;28;20024;-74
2023/05/08 07:50:38;;;;;;;17.92;13.77;;;;;;;;;;5054008;28;20033;-74
2023/05/08 07:53:04;;;;;;;17.52;13.57;;;;;;;;;;5046912;28;20033;-73
2023/05/08 07:55:29;;;;;;;20.60;14.68;;;;;;;;;;5050576;28;20033;-74
2023/05/08 07:57:54;;;;;;;20.35;15.02;;;;;;;;;;5042973;28;20025;-73
2023/05/08 08:00:20;;;;;;;17.73;14.20;;;;;;;;;;5047300;28;20029;-74
2023/05/08 08:02:45;;;;;;;18.50;14.25;;;;;;;;;;5044398;28;20032;-74
2023/05/08 08:05:11;;;;;;;18.55;13.35;;;;;;;;;;5046549;28;20033;-74
2023/05/08 08:07:36;;;;;;;21.95;17.27;;;;;;;;;;5045713;28;20024;-73
2023/05/08 08:10:03;;;;;;;23.13;17.60;;;;;;;;;;5047222;28;20032;-73
2023/05/08 08:12:30;;;;;;;24.63;18.30;;;;;;;;;;5047050;28;20044;-73
2023/05/08 08:14:55;;;;;;;22.73;17.30;;;;;;;;;;5049313;28;20029;-75
2023/05/08 08:17:21;;;;;;;25.35;19.13;;;;;;;;;;5049546;28;20021;-75
2023/05/08 08:19:46;;;;;;;23.67;17.50;;;;;;;;;;5048207;28;20033;-74
2023/05/08 08:22:11;;;;;;;24.23;18.88;;;;;;;;;;5046623;28;20148;-74
2023/05/08 08:24:37;;;;;;;26.13;18.05;;;;;;;;;;5048119;28;20128;-75
2023/05/08 08:27:03;;;;;;;29.15;19.85;;;;;;;;;;5062481;28;20078;-74
2023/05/08 08:29:28;;;;;;;27.92;20.05;;;;;;;;;;5047542;28;20032;-73
2023/05/08 08:31:54;;;;;;;30.48;21.85;;;;;;;;;;5044897;28;20441;-73
2023/05/08 08:34:19;;;;;;;28.60;20.90;;;;;;;;;;5049197;28;20033;-74
2023/05/08 08:36:45;;;;;;;30.15;21.08;;;;;;;;;;5047440;28;20040;-75
2023/05/08 08:39:10;;;;;;;32.33;22.70;;;;;;;;;;5045100;28;20017;-74
2023/05/08 08:41:38;;;;;;;31.27;22.30;;;;;;;;;;5048227;28;20900;-74
2023/05/08 08:44:03;;;;;;;27.45;20.92;;;;;;;;;;5044525;28;20107;-74
2023/05/08 08:46:32;;;;;;;29.25;20.85;;;;;;;;;;5046636;28;20215;-74
2023/05/08 08:48:58;;;;;;;34.53;21.73;;;;;;;;;;5045991;28;20512;-74
2023/05/08 08:51:23;;;;;;;28.20;20.38;;;;;;;;;;5047481;28;20033;-74
2023/05/08 08:54:13;;;;;;;29.35;21.02;;;;;;;;;;5047558;28;20029;-74
2023/05/08 08:56:41;;;;;;;29.48;20.88;;;;;;;;;;5046577;28;20102;-74
2023/05/08 08:59:07;;;;;;;27.90;20.83;;;;;;;;;;5045975;28;20505;-74
2023/05/08 09:01:37;;;;;;;29.30;21.10;;;;;;;;;;5046595;28;20036;-74
2023/05/08 09:04:04;;;;;;;30.55;21.17;;;;;;;;;;5048604;28;20029;-74
2023/05/08 09:06:29;;;;;;;29.30;20.73;;;;;;;;;;5047762;28;20075;-74
2023/05/08 09:08:56;;;;;;;29.52;20.73;;;;;;;;;;5043820;28;20386;-74
2023/05/08 09:11:26;;;;;;;26.50;19.13;;;;;;;;;;5042962;28;20083;-74
2023/05/08 09:13:51;;;;;;;28.55;20.65;;;;;;;;;;5046367;28;20124;-73
2023/05/08 09:16:17;;;;;;;27.35;20.60;;;;;;;;;;5045561;28;20453;-74
2023/05/08 09:18:42;;;;;;;29.67;20.90;;;;;;;;;;5047110;28;20017;-73
2023/05/08 09:21:08;;;;;;;28.85;20.73;;;;;;;;;;5048497;28;20029;-74
2023/05/08 09:23:36;;;;;;;26.10;18.80;;;;;;;;;;5045803;28;20029;-75
2023/05/08 09:26:02;;;;;;;26.67;19.80;;;;;;;;;;5046225;28;20035;-74
2023/05/08 09:28:27;;;;;;;26.23;19.55;;;;;;;;;;5046571;28;20037;-74
2023/05/08 09:30:57;;;;;;;24.42;18.50;;;;;;;;;;5045182;28;20029;-74
2023/05/08 09:33:24;;;;;;;29.95;22.10;;;;;;;;;;5047000;28;20027;-74
2023/05/08 09:35:50;;;;;;;27.55;19.70;;;;;;;;;;5044954;28;20024;-74
2023/05/08 09:38:27;;;;;;;27.00;19.70;;;;;;;;;;5045240;28;20082;-75
2023/05/08 09:41:05;;;;;;;26.92;20.02;;;;;;;;;;5047820;28;20057;-74
2023/05/08 09:43:31;;;;;;;25.10;18.83;;;;;;;;;;5045215;28;20027;-74
2023/05/08 09:45:56;;;;;;;29.75;20.15;;;;;;;;;;5045447;28;20139;-74
2023/05/08 09:48:36;;;;;;;27.58;21.17;;;;;;;;;;5047849;28;20028;-74
2023/05/08 09:51:06;;;;;;;26.95;20.75;;;;;;;;;;5045441;28;20043;-73
2023/05/08 09:53:31;;;;;;;29.05;20.88;;;;;;;;;;5042420;28;20027;-73
2023/05/08 09:55:56;;;;;;;29.30;20.85;;;;;;;;;;5051007;28;20112;-74
2023/05/08 09:58:23;;;;;;;27.25;20.60;;;;;;;;;;5051426;28;20028;-74
2023/05/08 10:00:49;;;;;;;26.52;20.05;;;;;;;;;;5038589;28;20470;-74
2023/05/08 10:03:14;;;;;;;30.08;21.02;;;;;;;;;;5048634;28;20128;-73
2023/05/08 10:05:40;;;;;;;26.88;20.73;;;;;;;;;;5042508;28;20112;-74
2023/05/08 10:08:18;;;;;;;28.00;20.60;;;;;;;;;;5045930;28;20021;-74
2023/05/08 10:10:43;;;;;;;28.50;20.63;;;;;;;;;;5038910;28;20067;-74
2023/05/08 10:13:09;;;;;;;27.48;20.23;;;;;;;;;;5048280;28;20052;-74
2023/05/08 10:15:37;;;;;;;28.77;19.52;;;;;;;;;;5052066;28;20536;-73
2023/05/08 10:18:04;;;;;;;26.70;20.52;;;;;;;;;;5049204;28;20063;-74
2023/05/08 10:20:31;;;;;;;27.85;20.38;;;;;;;;;;5049939;28;20028;-73
2023/05/08 10:22:57;;;;;;;28.85;21.00;;;;;;;;;;5038498;28;20121;-74
2023/05/08 10:25:24;;;;;;;26.63;21.15;;;;;;;;;;5041929;28;20032;-74
2023/05/08 10:28:05;;;;;;;30.73;21.80;;;;;;;;;;5043312;28;20025;-74
2023/05/08 10:30:32;;;;;;;27.75;20.92;;;;;;;;;;5044506;28;20120;-74
2023/05/08 10:33:01;;;;;;;28.90;21.33;;;;;;;;;;5047069;28;20107;-74
2023/05/08 10:35:27;;;;;;;33.10;21.80;;;;;;;;;;5035698;28;20119;-74
2023/05/08 10:37:55;;;;;;;28.45;21.60;;;;;;;;;;5041251;28;20116;-75
2023/05/08 10:40:21;;;;;;;28.40;21.33;;;;;;;;;;5056157;28;20075;-74
2023/05/08 10:42:48;;;;;;;28.40;22.50;;;;;;;;;;5044093;28;20040;-74
2023/05/08 10:45:14;;;;;;;27.48;21.98;;;;;;;;;;5052029;28;20068;-74
2023/05/08 10:48:02;;;;;;;27.15;20.92;;;;;;;;;;5051171;28;20029;-74
2023/05/08 10:50:35;;;;;;;26.88;19.85;;;;;;;;;;5039619;28;20440;-74
2023/05/08 10:53:10;;;;;;;;;;;;;;;;;;5046649;28;20033;-74
2023/05/08 10:55:37;;;;;;;27.30;19.58;;;;;;;;;;5046536;28;19921;-73
2023/05/08 10:58:14;;;;;;;27.92;20.92;;;;;;;;;;5048335;28;20047;-74
2023/05/08 11:00:51;;;;;;;30.98;22.10;;;;;;;;;;5042849;28;20024;-74
2023/05/08 11:03:17;;;;;;;30.05;21.77;;;;;;;;;;5060084;28;20428;-74
2023/05/08 11:05:47;;;;;;;32.03;22.77;;;;;;;;;;5047622;28;20020;-74
2023/05/08 11:08:24;;;;;;;31.73;22.08;;;;;;;;;;5046948;28;20056;-74
2023/05/08 11:13:33;;;;;;;32.25;21.90;;;;;;;;;;5054711;28;20040;-74
2023/05/08 11:15:59;;;;;;;31.73;23.08;;;;;;;;;;5052634;28;20033;-74
2023/05/08 11:18:25;;;;;;;30.55;21.88;;;;;;;;;;5050829;28;20116;-73
2023/05/08 11:21:03;;;;;;;33.90;21.88;;;;;;;;;;5048465;28;20033;-73
2023/05/08 11:23:30;;;;;;;33.75;22.25;;;;;;;;;;5049693;28;20032;-74
2023/05/08 11:26:15;;;;;;;32.85;22.50;;;;;;;;;;5047067;28;20063;-74
2023/05/08 11:29:00;;;;;;;30.92;22.48;;;;;;;;;;5048797;28;20032;-73
2023/05/08 11:31:49;;;;;;;35.38;22.75;;;;;;;;;;5048966;28;20137;-74
2023/05/08 11:34:39;;;;;;;35.25;23.42;;;;;;;;;;5050336;28;20029;-73
2023/05/08 11:37:08;;;;;;;35.25;23.42;;;;;;;;;;5045952;28;20548;-74
2023/05/08 11:39:33;;;;;;;35.90;24.67;;;;;;;;;;5050699;28;20373;-74
2023/05/08 11:42:24;;;;;;;37.00;25.05;;;;;;;;;;5052639;28;20086;-74
2023/05/08 11:45:04;;;;;;;39.30;24.40;;;;;;;;;;5041462;28;20432;-74
2023/05/08 11:47:44;;;;;;;38.38;25.38;;;;;;;;;;5050940;28;20025;-74
2023/05/08 11:50:11;;;;;;;39.65;25.17;;;;;;;;;;5043391;28;20063;-74
2023/05/08 11:52:39;;;;;;;37.70;26.63;;;;;;;;;;5037902;28;20117;-73
2023/05/08 11:55:06;;;;;;;38.67;25.75;;;;;;;;;;5043727;28;20064;-74
2023/05/08 11:57:32;;;;;;;42.35;27.52;;;;;;;;;;5050709;28;20025;-73
2023/05/08 12:00:08;;;;;;;39.63;26.83;;;;;;;;;;5048888;28;20044;-73
2023/05/08 12:02:38;;;;;;;37.03;24.98;;;;;;;;;;5040230;28;20358;-74
2023/05/08 12:05:08;;;;;;;41.38;24.70;;;;;;;;;;5047232;28;20033;-73
2023/05/08 12:07:45;;;;;;;35.33;22.45;;;;;;;;;;5045973;28;20053;-73
2023/05/08 12:10:10;;;;;;;32.25;21.23;;;;;;;;;;5045839;28;20064;-73
2023/05/08 12:12:37;;;;;;;31.67;21.42;;;;;;;;;;5050798;28;20438;-75
2023/05/08 12:15:13;;;;;;;30.83;20.98;;;;;;;;;;5047518;28;20021;-73
2023/05/08 12:17:39;;;;;;;33.17;21.02;;;;;;;;;;5044913;28;20558;-74
2023/05/08 12:20:13;;;;;;;34.47;22.25;;;;;;;;;;5040083;28;20113;-73
2023/05/08 12:22:48;;;;;;;33.83;21.67;;;;;;;;;;5042811;28;20389;-74
2023/05/08 12:25:15;;;;;;;30.73;20.73;;;;;;;;;;5038074;28;20068;-73
2023/05/08 12:27:42;;;;;;;32.13;21.17;;;;;;;;;;5038567;28;20481;-74
2023/05/08 12:30:09;;;;;;;32.55;20.92;;;;;;;;;;5046349;28;20389;-73
2023/05/08 12:32:36;;;;;;;33.78;21.30;;;;;;;;;;5042457;28;20067;-74
2023/05/08 12:35:02;;;;;;;31.60;21.48;;;;;;;;;;5048634;28;20485;-73
2023/05/08 12:37:28;;;;;;;32.40;20.80;;;;;;;;;;5041837;28;20032;-74
2023/05/08 12:39:53;;;;;;;33.78;19.73;;;;;;;;;;5052453;28;20064;-73
2023/05/08 12:42:18;;;;;;;31.77;18.98;;;;;;;;;;5047773;28;20041;-74
2023/05/08 12:44:53;;;;;;;28.33;17.60;;;;;;;;;;5049475;28;20420;-74
2023/05/08 12:47:19;;;;;;;26.10;17.17;;;;;;;;;;5049478;28;20060;-76
2023/05/08 12:49:48;;;;;;;29.10;18.70;;;;;;;;;;5047828;28;20020;-76
2023/05/08 12:52:14;;;;;;;27.38;16.73;;;;;;;;;;5047938;28;20032;-76
2023/05/08 12:54:46;;;;;;;25.52;17.73;;;;;;;;;;5043327;28;20032;-75
2023/05/08 12:57:16;;;;;;;22.83;15.57;;;;;;;;;;5050809;28;20396;-76
2023/05/08 12:59:43;;;;;;;25.58;17.38;;;;;;;;;;5045166;28;20025;-76
2023/05/08 13:02:13;;;;;;;26.67;16.80;;;;;;;;;;5050091;28;20039;-76
2023/05/08 13:04:38;;;;;;;22.10;15.82;;;;;;;;;;5061221;28;20055;-75
2023/05/08 13:07:04;;;;;;;26.25;17.38;;;;;;;;;;5052884;28;20025;-76
2023/05/08 13:09:29;;;;;;;28.58;19.10;;;;;;;;;;5051336;28;20384;-76
2023/05/08 13:11:55;;;;;;;31.58;19.83;;;;;;;;;;5042666;28;20021;-75
2023/05/08 13:14:20;;;;;;;29.23;16.63;;;;;;;;;;5050416;28;20497;-76
2023/05/08 13:16:46;;;;;;;30.23;19.38;;;;;;;;;;5055696;28;20439;-76
2023/05/08 13:19:14;;;;;;;28.95;19.73;;;;;;;;;;5051374;28;20017;-75
2023/05/08 13:21:39;;;;;;;29.30;18.52;;;;;;;;;;5047856;28;20024;-76
2023/05/08 13:24:05;;;;;;;29.13;18.10;;;;;;;;;;5044854;28;20029;-76
2023/05/08 13:26:31;;;;;;;31.17;19.13;;;;;;;;;;5049998;28;20021;-75
2023/05/08 13:28:56;;;;;;;28.23;18.23;;;;;;;;;;5040525;28;20034;-76
2023/05/08 13:31:22;;;;;;;28.48;19.45;;;;;;;;;;5047490;28;20090;-76
2023/05/08 13:33:47;;;;;;;24.65;16.35;;;;;;;;;;5054231;28;20100;-76
2023/05/08 13:36:12;;;;;;;31.60;19.02;;;;;;;;;;5052869;28;20025;-76
2023/05/08 13:38:38;;;;;;;32.88;20.52;;;;;;;;;;5053403;28;20156;-76
2023/05/08 13:41:03;;;;;;;31.55;21.02;;;;;;;;;;5051276;28;20032;-76
2023/05/08 13:43:28;;;;;;;31.77;20.73;;;;;;;;;;5056594;28;20032;-76
2023/05/08 13:45:54;;;;;;;31.55;21.42;;;;;;;;;;5037807;28;20413;-75
2023/05/08 13:48:19;;;;;;;35.17;22.00;;;;;;;;;;5051294;28;20086;-75
2023/05/08 13:50:44;;;;;;;36.22;22.20;;;;;;;;;;5042165;28;20029;-75
2023/05/08 13:53:10;;;;;;;32.72;21.02;;;;;;;;;;5051268;28;20116;-75
2023/05/08 13:55:35;;;;;;;32.20;21.05;;;;;;;;;;5047736;28;20452;-75
2023/05/08 13:58:01;;;;;;;32.35;20.77;;;;;;;;;;5046676;28;20495;-75
2023/05/08 14:00:26;;;;;;;33.53;20.50;;;;;;;;;;5046340;28;20047;-75
2023/05/08 14:02:51;;;;;;;34.42;20.98;;;;;;;;;;5050554;28;20029;-75
2023/05/08 14:05:17;;;;;;;33.50;21.33;;;;;;;;;;5050609;28;20029;-76
2023/05/08 14:07:43;;;;;;;30.52;19.40;;;;;;;;;;5052523;28;20046;-76
2023/05/08 14:10:09;;;;;;;33.00;21.52;;;;;;;;;;5049686;28;20560;-76
2023/05/08 14:12:34;;;;;;;34.17;20.80;;;;;;;;;;5044499;28;20963;-76
2023/05/08 14:15:01;;;;;;;34.08;21.58;;;;;;;;;;5053739;28;20024;-75
2023/05/08 14:17:26;;;;;;;34.22;21.20;;;;;;;;;;5051038;28;20064;-75
2023/05/08 14:19:52;;;;;;;36.00;21.95;;;;;;;;;;5036271;28;20454;-75
2023/05/08 14:22:17;;;;;;;33.08;20.13;;;;;;;;;;5043086;28;20381;-75
2023/05/08 14:24:43;;;;;;;34.00;21.17;;;;;;;;;;5047474;28;20064;-76
2023/05/08 14:27:09;;;;;;;35.33;21.42;;;;;;;;;;5056510;28;20056;-75
2023/05/08 14:29:34;;;;;;;34.42;21.23;;;;;;;;;;5050750;28;20481;-75
2023/05/08 14:32:00;;;;;;;36.20;20.65;;;;;;;;;;5041377;28;20087;-76
2023/05/08 14:34:25;;;;;;;36.85;21.90;;;;;;;;;;5053454;28;20029;-76
2023/05/08 14:36:51;;;;;;;35.22;21.10;;;;;;;;;;5045494;28;20119;-76